createdAt,value
2019-05-10T00:02:37.343Z,10.61
2019-05-10T00:05:40.794Z,10.42
2019-05-10T00:08:49.351Z,10.59
2019-05-10T00:11:56.400Z,10.67
2019-05-10T00:15:04.945Z,10.74
2019-05-10T00:17:49.518Z,10.79
2019-05-10T00:20:39.247Z,10.81
2019-05-10T00:23:21.685Z,10.72
2019-05-10T00:26:11.419Z,10.73
2019-05-10T00:28:53.576Z,10.77
2019-05-10T00:31:43.316Z,10.72
2019-05-10T00:34:25.577Z,10.58
2019-05-10T00:40:02.489Z,10.68
2019-05-10T00:42:33.149Z,10.63
2019-05-10T00:45:22.897Z,10.67
2019-05-10T00:48:12.628Z,10.76
2019-05-10T00:50:55.543Z,10.90
2019-05-10T00:53:45.357Z,10.92
2019-05-10T00:56:27.740Z,10.81
2019-05-10T00:59:17.496Z,10.79
2019-05-10T01:02:01.278Z,10.79
2019-05-10T01:04:43.349Z,10.74
2019-05-10T01:07:33.119Z,10.81
2019-05-10T01:10:25.870Z,10.83
2019-05-10T01:13:15.636Z,10.85
2019-05-10T01:16:05.422Z,10.88
2019-05-10T01:18:55.301Z,10.77
2019-05-10T01:21:45.020Z,10.64
2019-05-10T01:24:34.790Z,10.82
2019-05-10T01:27:17.398Z,10.77
2019-05-10T01:30:00.158Z,10.69
2019-05-10T01:32:50.271Z,10.66
2019-05-10T01:35:47.588Z,10.58
2019-05-10T01:38:37.365Z,10.52
2019-05-10T01:41:27.172Z,10.43
2019-05-10T01:47:39.666Z,10.28
2019-05-10T01:50:21.986Z,10.16
2019-05-10T01:53:11.720Z,10.08
2019-05-10T01:55:54.386Z,10.00
2019-05-10T01:58:37.030Z,9.95
2019-05-10T02:01:19.090Z,9.86
2019-05-10T02:07:23.348Z,9.76
2019-05-10T02:10:13.312Z,9.62
2019-05-10T02:13:03.063Z,9.70
2019-05-10T02:15:52.770Z,9.66
2019-05-10T02:18:35.182Z,9.62
2019-05-10T02:21:24.918Z,9.56
2019-05-10T02:24:08.644Z,9.52
2019-05-10T02:26:51.230Z,9.29
2019-05-10T02:29:40.987Z,9.43
2019-05-10T02:32:30.770Z,9.45
2019-05-10T02:35:20.475Z,9.24
2019-05-10T02:38:02.632Z,9.33
2019-05-10T02:40:52.381Z,9.31
2019-05-10T02:43:42.202Z,9.43
2019-05-10T02:46:32.030Z,9.39
2019-05-10T02:49:21.964Z,9.43
2019-05-10T02:52:11.796Z,9.21
2019-05-10T02:55:01.522Z,9.34
2019-05-10T02:58:15.148Z,9.33
2019-05-10T03:00:56.009Z,9.29
2019-05-10T03:03:46.101Z,9.30
2019-05-10T03:06:57.245Z,9.30
2019-05-10T03:13:04.322Z,9.36
2019-05-10T03:15:54.741Z,9.14
2019-05-10T03:22:09.113Z,9.33
2019-05-10T03:24:51.049Z,9.33
2019-05-10T03:27:40.848Z,9.30
2019-05-10T03:30:23.492Z,9.26
2019-05-10T03:33:13.174Z,9.14
2019-05-10T03:35:55.407Z,9.22
2019-05-10T03:38:45.317Z,9.29
2019-05-10T03:41:27.255Z,9.30
2019-05-10T03:44:16.958Z,9.23
2019-05-10T03:46:59.022Z,9.21
2019-05-10T03:49:48.732Z,9.22
2019-05-10T03:52:31.273Z,9.27
2019-05-10T03:55:20.946Z,9.27
2019-05-10T03:58:03.540Z,9.31
2019-05-10T04:03:46.685Z,9.32
2019-05-10T04:06:36.463Z,9.53
2019-05-10T04:09:26.257Z,9.54
2019-05-10T04:12:16.117Z,9.62
2019-05-10T04:15:06.815Z,9.58
2019-05-10T04:17:56.621Z,9.54
2019-05-10T04:20:46.328Z,9.40
2019-05-10T04:23:36.039Z,9.35
2019-05-10T04:26:18.211Z,9.26
2019-05-10T04:28:48.876Z,9.32
2019-05-10T04:34:35.345Z,9.23
2019-05-10T04:37:25.079Z,9.27
2019-05-10T04:40:09.103Z,9.27
2019-05-10T04:42:58.837Z,9.31
2019-05-10T04:45:42.011Z,9.24
2019-05-10T04:48:31.742Z,9.28
2019-05-10T04:51:13.889Z,9.29
2019-05-10T04:54:03.609Z,9.17
2019-05-10T04:59:37.352Z,9.27
2019-05-10T05:02:08.024Z,9.39
2019-05-10T05:04:52.417Z,9.42
2019-05-10T05:07:42.131Z,9.20
2019-05-10T05:10:31.850Z,9.45
2019-05-10T05:13:14.258Z,9.53
2019-05-10T05:16:04.016Z,9.58
2019-05-10T05:18:50.146Z,9.64
2019-05-10T05:21:32.652Z,9.56
2019-05-10T05:24:23.099Z,9.66
2019-05-10T05:27:06.992Z,9.66
2019-05-10T05:29:56.867Z,9.72
2019-05-10T05:32:59.861Z,9.67
2019-05-10T05:35:43.722Z,9.79
2019-05-10T05:38:33.467Z,9.77
2019-05-10T05:41:15.488Z,9.88
2019-05-10T05:44:05.210Z,9.88
2019-05-10T05:46:47.842Z,9.94
2019-05-10T05:49:37.577Z,9.96
2019-05-10T05:52:19.752Z,9.84
2019-05-10T05:55:09.437Z,10.17
2019-05-10T05:57:52.397Z,10.26
2019-05-10T06:00:44.836Z,10.42
2019-05-10T06:03:28.118Z,10.52
2019-05-10T06:06:21.817Z,10.60
2019-05-10T06:09:01.729Z,10.57
2019-05-10T06:12:12.558Z,10.61
2019-05-10T06:14:55.223Z,10.45
2019-05-10T06:17:55.721Z,10.49
2019-05-10T06:20:29.213Z,10.39
2019-05-10T06:23:12.064Z,10.52
2019-05-10T06:26:02.036Z,10.45
2019-05-10T06:29:03.781Z,10.25
2019-05-10T06:31:37.809Z,10.48
2019-05-10T06:34:20.777Z,10.44
2019-05-10T06:37:10.515Z,10.22
2019-05-10T06:39:52.559Z,10.17
2019-05-10T06:42:42.323Z,10.07
2019-05-10T06:45:32.112Z,9.98
2019-05-10T06:48:27.455Z,9.91
2019-05-10T06:51:09.780Z,10.06
2019-05-10T06:54:09.593Z,10.10
2019-05-10T06:56:52.607Z,10.13
2019-05-10T06:59:42.665Z,10.25
2019-05-10T07:02:32.646Z,10.35
2019-05-10T07:05:04.952Z,10.39
2019-05-10T07:07:43.976Z,10.61
2019-05-10T07:10:17.697Z,10.77
2019-05-10T07:13:03.516Z,10.95
2019-05-10T07:15:44.833Z,11.09
2019-05-10T07:18:34.742Z,10.98
2019-05-10T07:21:17.627Z,10.95
2019-05-10T07:24:07.356Z,10.90
2019-05-10T07:26:49.532Z,10.86
2019-05-10T07:29:43.220Z,10.90
2019-05-10T07:32:24.748Z,10.95
2019-05-10T07:35:14.500Z,10.79
2019-05-10T07:37:56.813Z,11.07
2019-05-10T07:40:46.544Z,11.12
2019-05-10T07:43:29.509Z,11.20
2019-05-10T07:46:19.249Z,11.24
2019-05-10T07:49:01.480Z,11.29
2019-05-10T07:51:51.213Z,11.20
2019-05-10T07:54:37.709Z,11.30
2019-05-10T07:57:27.038Z,11.35
2019-05-10T08:00:09.172Z,11.42
2019-05-10T08:03:09.809Z,11.63
2019-05-10T08:05:46.160Z,11.56
2019-05-10T08:08:29.638Z,11.74
2019-05-10T08:11:19.156Z,11.70
2019-05-10T08:14:06.268Z,11.80
2019-05-10T08:16:38.610Z,11.83
2019-05-10T08:19:19.922Z,11.88
2019-05-10T08:22:09.630Z,12.16
2019-05-10T08:24:56.215Z,12.28
2019-05-10T08:27:50.276Z,12.32
2019-05-10T08:30:53.485Z,12.63
2019-05-10T08:33:46.367Z,12.79
2019-05-10T08:36:24.042Z,12.84
2019-05-10T08:39:14.162Z,12.81
2019-05-10T08:42:04.841Z,12.93
2019-05-10T08:45:09.094Z,12.73
2019-05-10T08:48:00.504Z,12.68
2019-05-10T08:50:53.299Z,12.71
2019-05-10T08:53:28.232Z,12.68
2019-05-10T08:56:21.696Z,12.67
2019-05-10T08:59:03.869Z,13.00
2019-05-10T09:01:53.804Z,12.88
2019-05-10T09:04:45.396Z,13.26
2019-05-10T09:07:29.489Z,13.24
2019-05-10T09:10:13.199Z,13.41
2019-05-10T09:15:54.346Z,13.52
2019-05-10T09:18:22.909Z,13.75
2019-05-10T09:21:14.350Z,13.97
2019-05-10T09:24:06.659Z,14.03
2019-05-10T09:26:52.764Z,13.90
2019-05-10T09:29:39.551Z,13.89
2019-05-10T09:32:28.971Z,13.65
2019-05-10T09:35:15.130Z,13.48
2019-05-10T09:37:58.686Z,13.55
2019-05-10T09:40:52.973Z,13.43
2019-05-10T09:43:33.107Z,13.42
2019-05-10T09:46:23.048Z,13.36
2019-05-10T09:49:18.080Z,13.30
2019-05-10T09:51:56.643Z,13.08
2019-05-10T09:54:49.225Z,13.08
2019-05-10T09:57:32.322Z,12.99
2019-05-10T10:03:43.277Z,13.41
2019-05-10T10:06:29.841Z,13.80
2019-05-10T10:09:12.443Z,13.92
2019-05-10T10:12:03.211Z,14.45
2019-05-10T10:14:53.602Z,14.73
2019-05-10T10:17:38.645Z,15.02
2019-05-10T10:20:29.774Z,14.86
2019-05-10T10:23:12.867Z,14.85
2019-05-10T10:26:02.704Z,14.61
2019-05-10T10:28:55.118Z,14.61
2019-05-10T10:31:46.530Z,14.75
2019-05-10T10:34:32.633Z,14.78
2019-05-10T10:37:14.571Z,15.22
2019-05-10T10:40:07.852Z,15.45
2019-05-10T10:42:48.582Z,15.46
2019-05-10T10:45:38.407Z,15.87
2019-05-10T10:51:34.069Z,16.53
2019-05-10T10:54:17.633Z,16.99
2019-05-10T11:00:31.255Z,16.52
2019-05-10T11:03:13.276Z,16.32
2019-05-10T11:06:03.080Z,15.66
2019-05-10T11:08:52.860Z,15.49
2019-05-10T11:11:44.806Z,15.32
2019-05-10T11:14:26.738Z,15.27
2019-05-10T11:17:16.540Z,15.25
2019-05-10T11:20:08.570Z,15.57
2019-05-10T11:25:42.813Z,16.17
2019-05-10T11:28:30.134Z,16.89
2019-05-10T11:31:11.298Z,17.16
2019-05-10T11:34:01.510Z,16.90
2019-05-10T11:36:45.918Z,16.87
2019-05-10T11:39:33.221Z,16.50
2019-05-10T11:42:21.173Z,16.48
2019-05-10T11:45:05.398Z,16.39
2019-05-10T11:47:59.034Z,16.11
2019-05-10T11:50:41.109Z,15.39
2019-05-10T11:53:31.551Z,15.19
2019-05-10T11:56:15.543Z,15.02
2019-05-10T11:59:05.931Z,14.81
2019-05-10T12:04:43.316Z,14.94
2019-05-10T12:07:37.499Z,15.45
2019-05-10T12:10:24.857Z,15.72
2019-05-10T12:13:15.007Z,16.08
2019-05-10T12:15:53.613Z,16.21
2019-05-10T12:18:36.530Z,17.13
2019-05-10T12:21:26.507Z,17.03
2019-05-10T12:24:26.011Z,17.34
2019-05-10T12:26:18.523Z,14.71
2019-05-10T12:27:18.856Z,16.94
2019-05-10T12:29:46.693Z,17.13
2019-05-10T12:32:42.046Z,16.99
2019-05-10T12:35:21.532Z,16.79
2019-05-10T12:38:11.397Z,17.08
2019-05-10T12:40:53.566Z,17.02
2019-05-10T12:43:43.644Z,17.29
2019-05-10T12:46:27.087Z,17.83
2019-05-10T12:49:16.825Z,17.50
2019-05-10T12:51:58.878Z,17.25
2019-05-10T12:54:48.609Z,17.18
2019-05-10T12:57:31.029Z,16.94
2019-05-10T13:00:20.907Z,16.95
2019-05-10T13:03:12.149Z,16.95
2019-05-10T13:05:55.349Z,17.05
2019-05-10T13:08:38.329Z,17.01
2019-05-10T13:11:40.861Z,17.08
2019-05-10T13:14:23.261Z,16.93
2019-05-10T13:17:16.678Z,17.24
2019-05-10T13:19:58.526Z,17.57
2019-05-10T13:22:48.635Z,17.81
2019-05-10T13:25:38.347Z,18.43
2019-05-10T13:31:08.297Z,17.27
2019-05-10T13:33:42.159Z,16.71
2019-05-10T13:36:23.533Z,16.45
2019-05-10T13:39:13.295Z,16.58
2019-05-10T13:41:57.176Z,16.09
2019-05-10T13:44:47.108Z,16.12
2019-05-10T13:47:30.646Z,16.03
2019-05-10T13:50:20.420Z,16.05
2019-05-10T13:53:20.245Z,16.07
2019-05-10T13:55:53.931Z,16.17
2019-05-10T13:58:43.640Z,16.16
2019-05-10T14:01:33.344Z,16.32
2019-05-10T14:04:15.989Z,16.22
2019-05-10T14:07:05.751Z,16.33
2019-05-10T14:09:55.479Z,16.56
2019-05-10T14:12:45.220Z,17.09
2019-05-10T14:15:34.945Z,17.75
2019-05-10T14:18:18.341Z,18.13
2019-05-10T14:21:08.070Z,18.55
2019-05-10T14:23:51.170Z,18.32
2019-05-10T14:26:40.932Z,18.79
2019-05-10T14:29:33.466Z,18.51
2019-05-10T14:32:15.180Z,18.74
2019-05-10T14:34:58.331Z,18.71
2019-05-10T14:37:48.642Z,18.54
2019-05-10T14:40:32.080Z,18.30
2019-05-10T14:43:22.382Z,18.14
2019-05-10T14:46:13.091Z,18.47
2019-05-10T14:48:57.113Z,18.44
2019-05-10T14:51:57.401Z,18.40
2019-05-10T14:54:43.233Z,18.45
2019-05-10T14:57:15.601Z,18.51
2019-05-10T15:03:21.512Z,17.76
2019-05-10T15:06:11.892Z,18.05
2019-05-10T15:09:01.708Z,18.53
2019-05-10T15:11:52.060Z,18.91
2019-05-10T15:14:42.430Z,18.66
2019-05-10T15:17:45.245Z,18.83
2019-05-10T15:20:27.397Z,18.50
2019-05-10T15:23:17.127Z,18.36
2019-05-10T15:26:10.546Z,18.01
2019-05-10T15:28:51.553Z,17.89
2019-05-10T15:31:34.290Z,17.77
2019-05-10T15:39:52.002Z,18.26
2019-05-10T15:42:42.290Z,18.34
2019-05-10T15:45:24.862Z,18.24
2019-05-10T15:48:14.677Z,18.12
2019-05-10T15:51:04.512Z,18.28
2019-05-10T15:54:03.827Z,18.17
2019-05-10T15:56:41.807Z,18.15
2019-05-10T15:59:30.240Z,18.05
2019-05-10T16:02:20.182Z,17.90
2019-05-10T16:05:25.648Z,17.74
2019-05-10T16:07:56.514Z,17.58
2019-05-10T16:10:41.038Z,17.70
2019-05-10T16:13:30.785Z,17.87
2019-05-10T16:16:14.007Z,18.02
2019-05-10T16:19:04.317Z,17.75
2019-05-10T16:21:51.876Z,17.69
2019-05-10T16:24:38.127Z,17.67
2019-05-10T16:27:21.269Z,17.65
2019-05-10T16:33:15.685Z,17.20
2019-05-10T16:35:58.171Z,17.09
2019-05-10T16:38:47.968Z,17.06
2019-05-10T16:41:37.819Z,17.15
2019-05-10T16:44:27.620Z,17.34
2019-05-10T16:47:17.425Z,17.40
2019-05-10T16:50:07.290Z,17.35
2019-05-10T16:52:59.415Z,17.06
2019-05-10T16:55:42.925Z,17.02
2019-05-10T16:58:32.830Z,16.55
2019-05-10T17:01:27.653Z,16.76
2019-05-10T17:04:08.417Z,16.81
2019-05-10T17:06:58.638Z,16.76
2019-05-10T17:09:42.529Z,16.74
2019-05-10T17:12:32.254Z,16.89
2019-05-10T17:15:15.139Z,16.93
2019-05-10T17:18:10.518Z,16.68
2019-05-10T17:20:50.803Z,16.58
2019-05-10T17:23:41.645Z,16.55
2019-05-10T17:26:25.295Z,16.26
2019-05-10T17:29:15.300Z,16.08
2019-05-10T17:31:57.301Z,15.98
2019-05-10T17:34:47.234Z,15.66
2019-05-10T17:37:37.553Z,15.78
2019-05-10T17:40:12.241Z,15.66
2019-05-10T17:45:51.183Z,15.64
2019-05-10T17:48:47.539Z,15.65
2019-05-10T17:51:32.447Z,15.61
2019-05-10T17:54:16.376Z,15.54
2019-05-10T17:56:58.662Z,15.49
2019-05-10T17:59:52.878Z,15.50
2019-05-10T18:02:32.319Z,15.24
2019-05-10T18:05:22.110Z,15.45
2019-05-10T18:08:11.925Z,15.53
2019-05-10T18:11:03.853Z,15.61
2019-05-10T18:13:46.351Z,15.66
2019-05-10T18:19:39.843Z,15.62
2019-05-10T18:22:22.195Z,15.56
2019-05-10T18:25:19.451Z,15.49
2019-05-10T18:27:56.578Z,15.44
2019-05-10T18:30:46.535Z,15.28
2019-05-10T18:33:36.262Z,15.15
2019-05-10T18:36:50.030Z,15.10
2019-05-10T18:39:17.769Z,14.65
2019-05-10T18:42:01.928Z,14.66
2019-05-10T18:44:53.966Z,14.63
2019-05-10T18:47:36.078Z,14.53
2019-05-10T18:50:26.202Z,14.36
2019-05-10T18:53:08.265Z,14.33
2019-05-10T18:55:58.044Z,14.26
2019-05-10T18:58:47.874Z,14.16
2019-05-10T19:01:32.952Z,14.19
2019-05-10T19:07:17.195Z,13.98
2019-05-10T19:10:07.125Z,13.75
2019-05-10T19:12:59.917Z,13.96
2019-05-10T19:15:40.678Z,13.98
2019-05-10T19:18:26.753Z,13.70
2019-05-10T19:21:16.529Z,13.77
2019-05-10T19:23:59.531Z,13.69
2019-05-10T19:26:49.533Z,13.80
2019-05-10T19:29:32.107Z,13.75
2019-05-10T19:32:21.945Z,13.70
2019-05-10T19:35:05.318Z,13.57
2019-05-10T19:37:47.512Z,13.43
2019-05-10T19:40:37.336Z,13.35
2019-05-10T19:43:27.173Z,13.23
2019-05-10T19:46:16.937Z,13.54
2019-05-10T19:54:27.770Z,13.46
2019-05-10T19:57:18.909Z,13.48
2019-05-10T20:00:01.950Z,13.27
2019-05-10T20:02:51.818Z,13.22
2019-05-10T20:05:41.692Z,13.10
2019-05-10T20:08:31.461Z,13.19
2019-05-10T20:11:21.227Z,13.26
2019-05-10T20:14:10.968Z,13.30
2019-05-10T20:17:00.723Z,13.37
2019-05-10T20:19:42.753Z,13.37
2019-05-10T20:22:35.988Z,13.39
2019-05-10T20:25:17.209Z,13.35
2019-05-10T20:28:07.063Z,13.30
2019-05-10T20:30:56.935Z,13.08
2019-05-10T20:33:46.716Z,13.19
2019-05-10T20:36:36.472Z,13.15
2019-05-10T20:39:26.237Z,13.27
2019-05-10T20:42:08.680Z,13.32
2019-05-10T20:45:07.581Z,13.23
2019-05-10T20:47:42.324Z,13.20
2019-05-10T20:50:32.068Z,12.87
2019-05-10T20:53:14.870Z,13.03
2019-05-10T20:56:04.633Z,12.94
2019-05-10T20:58:54.412Z,12.97
2019-05-10T21:01:36.992Z,13.01
2019-05-10T21:04:26.716Z,12.86
2019-05-10T21:07:08.955Z,12.97
2019-05-10T21:09:58.721Z,12.94
2019-05-10T21:12:48.456Z,12.89
2019-05-10T21:15:57.350Z,13.10
2019-05-10T21:19:06.172Z,13.12
2019-05-10T21:24:51.901Z,12.88
2019-05-10T21:27:41.644Z,12.79
2019-05-10T21:30:23.780Z,12.80
2019-05-10T21:33:13.517Z,12.79
2019-05-10T21:35:56.306Z,12.41
2019-05-10T21:38:46.076Z,12.50
2019-05-10T21:41:28.146Z,12.62
2019-05-10T21:44:17.880Z,12.55
2019-05-10T21:47:00.406Z,12.64
2019-05-10T21:49:50.141Z,12.59
2019-05-10T21:52:32.204Z,12.68
2019-05-10T22:01:01.685Z,12.73
2019-05-10T22:03:51.578Z,12.69
2019-05-10T22:06:41.678Z,12.64
2019-05-10T22:09:31.439Z,12.71
2019-05-10T22:12:21.160Z,12.49
2019-05-10T22:15:30.106Z,12.37
2019-05-10T22:18:12.100Z,12.36
2019-05-10T22:21:01.791Z,12.32
2019-05-10T22:23:44.140Z,12.37
2019-05-10T22:26:33.872Z,12.22
2019-05-10T22:29:16.512Z,12.35
2019-05-10T22:32:06.251Z,12.11
2019-05-10T22:34:48.521Z,12.15
2019-05-10T22:37:38.272Z,12.12
2019-05-10T22:40:21.188Z,12.30
2019-05-10T22:43:10.936Z,12.01
2019-05-10T22:45:53.785Z,11.97
2019-05-10T22:48:43.714Z,11.86
2019-05-10T22:51:26.335Z,11.82
2019-05-10T22:54:16.027Z,11.83
2019-05-10T22:56:58.797Z,11.73
2019-05-10T22:59:48.508Z,11.45
2019-05-10T23:02:31.244Z,11.39
2019-05-10T23:05:20.979Z,11.12
2019-05-10T23:08:03.824Z,10.91
2019-05-10T23:10:53.558Z,10.71
2019-05-10T23:13:35.699Z,10.55
2019-05-10T23:16:25.421Z,10.46
2019-05-10T23:19:07.683Z,10.46
2019-05-10T23:21:57.393Z,10.34
2019-05-10T23:24:41.342Z,10.43
2019-05-10T23:27:31.057Z,10.53
2019-05-10T23:30:14.907Z,10.50
2019-05-10T23:33:04.633Z,10.62
2019-05-10T23:35:47.445Z,10.57
2019-05-10T23:38:37.174Z,10.52
2019-05-10T23:41:19.364Z,10.81
2019-05-10T23:44:09.097Z,10.99
2019-05-10T23:46:51.593Z,11.11
2019-05-10T23:49:41.394Z,11.14
2019-05-10T23:52:31.345Z,11.20
2019-05-10T23:55:21.189Z,11.20
2019-05-10T23:58:10.940Z,11.37
